Iver Prosperity — V7LP8 — position and weather

sailwx.info

Track history (hours):
 
Tides and Currents Weather Stations Pressure Air Temp Water Temp Dewpoint Dewpoint Depression Visibility Wind Speed Wind Dir Waves Ship Positions

Iver Prosperity

Last reported at 2017-Nov-18 12:54 UTC. Time now 2017-Nov-22 15:02 UTC.
Position N 43°40' W 068°47'.

Length 184 m; draft 7.6 m.

Type: Ship (hazmat cat A). MMSI: 538002784.

Date/timePositionNaut miles runAvg speedWind from/ knotsBaromVisibWave heightAir tempDewpointWater temp
2017-Nov-18 12:54N 43°40' W 068°47'1311.7
2017-Nov-18 11:45N 43°39' W 069°06'  
2017-Nov-09 08:35N 42°36' W 070°02'110.0
2017-Nov-09 08:30N 42°35' W 070°03'510.8
2017-Nov-09 08:00N 42°32' W 070°09'713.4
2017-Nov-09 07:30N 42°29' W 070°16'612.9
2017-Nov-09 07:00N 42°25' W 070°23'612.2
2017-Nov-09 06:30N 42°20' W 070°28'713.3
2017-Nov-09 06:00N 42°14' W 070°30'612.9
2017-Nov-09 05:30N 42°07' W 070°30'612.8
2017-Nov-09 05:00N 42°01' W 070°29'20 8.9
2017-Nov-09 02:47N 41°43' W 070°39'3 8.7
2017-Nov-09 02:25N 41°40' W 070°41'5 6.3
2017-Nov-09 01:39N 41°35' W 070°43'1 5.8
2017-Nov-09 01:30N 41°34' W 070°43'3 6.4
2017-Nov-09 01:00N 41°32' W 070°47'3 6.2
2017-Nov-09 00:28N 41°30' W 070°50'3 6.1
2017-Nov-08 23:57N 41°29' W 070°54'4 8.0
2017-Nov-08 23:25N 41°27' W 070°59'48 9.1
2017-Nov-08 18:08N 41°14' W 072°01'1112.3
2017-Nov-08 17:15N 41°12' W 072°15'311.9
2017-Nov-08 17:00N 41°11' W 072°19'611.6
2017-Nov-08 16:30N 41°09' W 072°26'611.6
2017-Nov-08 16:00N 41°09' W 072°33'612.9
2017-Nov-08 15:30N 41°10' W 072°42'713.2
2017-Nov-08 14:58N 41°12' W 072°51'  
Track history (hours):
 
Tides and Currents Weather Stations Pressure Air Temp Water Temp Dewpoint Dewpoint Depression Visibility Wind Speed Wind Dir Waves Ship Positions

Iver Prosperity

Last reported at 2017-Nov-18 12:54 UTC. Time now 2017-Nov-22 15:02 UTC.
Position N 43°40' W 068°47'.

Length 184 m; draft 7.6 m.

Type: Ship (hazmat cat A). MMSI: 538002784.

Date/timePositionNaut miles runAvg speedWind from/ knotsBaromVisibWave heightAir tempDewpointWater temp
2017-Nov-18 12:54N 43°40' W 068°47'1311.7
2017-Nov-18 11:45N 43°39' W 069°06'  
2017-Nov-09 08:35N 42°36' W 070°02'110.0
2017-Nov-09 08:30N 42°35' W 070°03'510.8
2017-Nov-09 08:00N 42°32' W 070°09'713.4
2017-Nov-09 07:30N 42°29' W 070°16'612.9
2017-Nov-09 07:00N 42°25' W 070°23'612.2
2017-Nov-09 06:30N 42°20' W 070°28'713.3
2017-Nov-09 06:00N 42°14' W 070°30'612.9
2017-Nov-09 05:30N 42°07' W 070°30'612.8
2017-Nov-09 05:00N 42°01' W 070°29'20 8.9
2017-Nov-09 02:47N 41°43' W 070°39'3 8.7
2017-Nov-09 02:25N 41°40' W 070°41'5 6.3
2017-Nov-09 01:39N 41°35' W 070°43'1 5.8
2017-Nov-09 01:30N 41°34' W 070°43'3 6.4
2017-Nov-09 01:00N 41°32' W 070°47'3 6.2
2017-Nov-09 00:28N 41°30' W 070°50'3 6.1
2017-Nov-08 23:57N 41°29' W 070°54'4 8.0
2017-Nov-08 23:25N 41°27' W 070°59'48 9.1
2017-Nov-08 18:08N 41°14' W 072°01'1112.3
2017-Nov-08 17:15N 41°12' W 072°15'311.9
2017-Nov-08 17:00N 41°11' W 072°19'611.6
2017-Nov-08 16:30N 41°09' W 072°26'611.6
2017-Nov-08 16:00N 41°09' W 072°33'612.9
2017-Nov-08 15:30N 41°10' W 072°42'713.2
2017-Nov-08 14:58N 41°12' W 072°51'  

Dump ship's entire track history